Abbott, Texas
Current Conditions -  °F | °C
As of 2:35 PM on Tuesday 27 Jan 2015 (Local Time) from KINJ Reporting Station
Clear Clear  
Wind Chill: 77°   Ceiling: Unl
Heat Index: 77°   Visibility: 10mi
Dew Point: 39°   Wind: 3mph
Humidity: 25%   Direction: 270°W
Pressure: 30.13"   Gusts: NA
Location:  31.88°N, 97.07°W
Report Text: KINJ 272035Z AUTO 27003KT 10SM CLR 25/04 A3013 RMK AO2 T02520037
Loading
Personal Weather Stations






























Interactive Weather Map New forecast layout! Learn more

10-Day Weather Forecast

Advertisements
Track Severe Weather on mobile